Time;durP1;ratioP1;P1;durP2;ratioP2;P2;SDS_P1;SDS_P2;PMS_P1;PMS_P2;Temp;Humidity;BMP_temperature;BMP_pressure;BME280_temperature;BME280_humidity;BME280_pressure;Samples;Min_cycle;Max_cycle;Signal;HPM_P1;HPM_P2
2023/10/18 00:00:59;;;;;;;29.48;19.92;;;;;;;-145.67;100.00;66521.78;5082049;28;20126;-90
2023/10/18 00:03:26;;;;;;;25.77;19.27;;;;;;;-145.67;100.00;66521.78;5098179;28;20059;-90
2023/10/18 00:05:52;;;;;;;26.55;19.27;;;;;;;-145.67;100.00;66521.78;5082323;28;20062;-90
2023/10/18 00:08:17;;;;;;;30.48;20.67;;;;;;;-145.67;100.00;66521.78;5081385;28;20060;-89
2023/10/18 00:10:44;;;;;;;27.80;19.85;;;;;;;-145.67;100.00;66521.78;5081980;28;20385;-90
2023/10/18 00:13:11;;;;;;;29.85;20.67;;;;;;;-145.67;100.00;66521.78;5097737;28;20035;-91
2023/10/18 00:15:38;;;;;;;27.55;20.38;;;;;;;-145.67;100.00;66521.78;5108308;28;20034;-90
2023/10/18 00:18:04;;;;;;;28.50;20.88;;;;;;;-145.67;100.00;66521.78;5061502;28;20087;-90
2023/10/18 00:20:30;;;;;;;27.33;20.83;;;;;;;-145.67;100.00;66521.78;5059547;28;20371;-91
2023/10/18 00:22:57;;;;;;;28.73;20.95;;;;;;;-145.67;100.00;66521.78;5060044;28;20059;-91
2023/10/18 00:25:23;;;;;;;27.17;19.85;;;;;;;-145.67;100.00;66521.78;5061475;28;20030;-91
2023/10/18 00:27:49;;;;;;;26.67;19.25;;;;;;;-145.67;100.00;66521.78;5061148;28;20398;-91
2023/10/18 00:30:18;;;;;;;28.05;21.38;;;;;;;-145.67;100.00;66521.78;5103426;28;20031;-90
2023/10/18 00:32:47;;;;;;;30.65;20.85;;;;;;;-145.67;100.00;66521.78;5097615;28;20043;-91
2023/10/18 00:35:18;;;;;;;33.15;22.65;;;;;;;-145.67;100.00;66521.78;5097510;28;20028;-90
2023/10/18 00:37:45;;;;;;;30.05;21.08;;;;;;;-145.67;100.00;66521.78;5081783;28;20533;-90
2023/10/18 00:40:21;;;;;;;31.20;21.88;;;;;;;-145.67;100.00;66521.78;5088985;28;20035;-90
2023/10/18 00:42:47;;;;;;;31.48;21.75;;;;;;;-145.67;100.00;66521.78;5105859;28;20011;-90
2023/10/18 00:45:13;;;;;;;29.33;22.08;;;;;;;-145.67;100.00;66521.78;5085747;28;20062;-92
2023/10/18 00:47:39;;;;;;;35.17;22.90;;;;;;;-145.67;100.00;66521.78;5077505;28;20040;-90
2023/10/18 00:50:06;;;;;;;31.33;22.00;;;;;;;-145.67;100.00;66521.78;5060615;28;20429;-91
2023/10/18 00:52:32;;;;;;;35.13;23.00;;;;;;;-145.67;100.00;66521.78;5076661;28;20028;-90
2023/10/18 00:54:58;;;;;;;35.40;23.17;;;;;;;-145.67;100.00;66521.78;5059573;28;20589;-89
2023/10/18 00:57:34;;;;;;;34.88;23.30;;;;;;;-145.67;100.00;66521.78;5081658;28;20027;-90
2023/10/18 01:00:06;;;;;;;34.42;24.02;;;;;;;-145.67;100.00;66521.78;5080803;28;20491;-91
2023/10/18 01:02:39;;;;;;;32.83;22.88;;;;;;;-145.67;100.00;66521.78;5063099;28;20035;-92
2023/10/18 01:05:10;;;;;;;36.13;23.02;;;;;;;-145.67;100.00;66521.78;5114555;28;20027;-89
2023/10/18 01:07:36;;;;;;;32.72;22.67;;;;;;;-145.67;100.00;66521.78;5080341;28;20035;-90
2023/10/18 01:10:07;;;;;;;31.60;23.42;;;;;;;-145.67;100.00;66521.78;5079627;28;20388;-90
2023/10/18 01:12:37;;;;;;;29.65;22.90;;;;;;;-145.67;100.00;66521.78;5080197;28;20031;-90
2023/10/18 01:15:19;;;;;;;33.50;24.20;;;;;;;-145.67;100.00;66521.78;5096102;28;20109;-88
2023/10/18 01:17:47;;;;;;;31.60;23.90;;;;;;;-145.67;100.00;66521.78;5080604;28;20106;-89
2023/10/18 01:20:33;;;;;;;35.92;23.60;;;;;;;-145.67;100.00;66521.78;5080102;28;20034;-89
2023/10/18 01:23:00;;;;;;;34.28;24.55;;;;;;;-145.67;100.00;66521.78;5082146;28;20041;-90
2023/10/18 01:25:27;;;;;;;35.92;24.00;;;;;;;-145.67;100.00;66521.78;5088809;28;20040;-89
2023/10/18 01:27:53;;;;;;;34.35;23.65;;;;;;;-145.67;100.00;66521.78;5076279;28;20122;-90
2023/10/18 01:30:19;;;;;;;35.50;24.00;;;;;;;-145.67;100.00;66521.78;5059936;28;20056;-89
2023/10/18 01:32:48;;;;;;;35.47;24.23;;;;;;;-145.67;100.00;66521.78;5075993;28;20092;-89
2023/10/18 01:35:15;;;;;;;44.80;24.70;;;;;;;-145.67;100.00;66521.78;5059535;28;20093;-91
2023/10/18 01:37:43;;;;;;;31.30;23.52;;;;;;;-145.67;100.00;66521.78;5094022;28;20024;-90
2023/10/18 01:42:58;;;;;;;33.67;23.90;;;;;;;-145.67;100.00;66521.78;5093633;28;20381;-90
2023/10/18 01:45:30;;;;;;;34.83;23.52;;;;;;;-145.67;100.00;66521.78;5094201;28;20024;-89
2023/10/18 01:47:56;;;;;;;34.90;24.13;;;;;;;-145.67;100.00;66521.78;5059878;28;20062;-90
2023/10/18 01:50:26;;;;;;;37.42;24.27;;;;;;;-145.67;100.00;66521.78;5076577;28;20024;-90
2023/10/18 01:52:52;;;;;;;36.03;23.75;;;;;;;-145.67;100.00;66521.78;5059302;28;20035;-91
2023/10/18 01:55:18;;;;;;;30.25;21.88;;;;;;;-145.67;100.00;66521.78;5094252;28;20115;-90
2023/10/18 01:57:45;;;;;;;31.42;22.00;;;;;;;-145.67;100.00;66521.78;5093790;28;20024;-90
2023/10/18 02:00:15;;;;;;;31.67;23.05;;;;;;;-145.67;100.00;66521.78;5059065;28;20878;-89
2023/10/18 02:02:46;;;;;;;32.97;23.40;;;;;;;-145.67;100.00;66521.78;5060386;28;20028;-89
2023/10/18 02:05:15;;;;;;;33.08;22.80;;;;;;;-145.67;100.00;66521.78;5062206;28;20548;-90
2023/10/18 02:07:42;;;;;;;31.60;22.30;;;;;;;-145.67;100.00;66521.78;5091167;28;20085;-89
2023/10/18 02:10:08;;;;;;;36.05;23.30;;;;;;;-145.67;100.00;66521.78;5077715;28;20024;-88
2023/10/18 02:12:36;;;;;;;33.35;23.67;;;;;;;-145.67;100.00;66521.78;5088749;28;20031;-88
2023/10/18 02:15:06;;;;;;;35.80;23.75;;;;;;;-145.67;100.00;66521.78;5060097;28;20118;-89
2023/10/18 02:17:32;;;;;;;34.55;23.13;;;;;;;-145.67;100.00;66521.78;5081858;28;20114;-89
2023/10/18 02:19:59;;;;;;;35.72;23.10;;;;;;;-145.67;100.00;66521.78;5069197;28;20050;-89
2023/10/18 02:22:27;;;;;;;32.28;23.17;;;;;;;-145.67;100.00;66521.78;5092041;28;20031;-89
2023/10/18 02:24:53;;;;;;;31.65;22.95;;;;;;;-145.67;100.00;66521.78;5081807;28;20114;-88
2023/10/18 02:27:19;;;;;;;34.53;23.65;;;;;;;-145.67;100.00;66521.78;5098494;28;20043;-88
2023/10/18 02:29:48;;;;;;;35.80;23.45;;;;;;;-145.67;100.00;66521.78;5098837;28;20035;-88
2023/10/18 02:32:32;;;;;;;36.17;23.95;;;;;;;-145.67;100.00;66521.78;5081786;28;20012;-89
2023/10/18 02:34:58;;;;;;;33.17;22.77;;;;;;;-145.67;100.00;66521.78;5100562;28;20034;-88
2023/10/18 02:37:27;;;;;;;34.88;22.95;;;;;;;-145.67;100.00;66521.78;5081099;28;20020;-91
2023/10/18 02:40:07;;;;;;;33.28;22.55;;;;;;;-145.67;100.00;66521.78;5079939;28;20028;-88
2023/10/18 02:42:32;;;;;;;36.83;22.77;;;;;;;-145.67;100.00;66521.78;5098738;28;20115;-90
2023/10/18 02:44:59;;;;;;;34.97;22.95;;;;;;;-145.67;100.00;66521.78;5096456;28;20024;-90
2023/10/18 02:47:25;;;;;;;34.58;23.55;;;;;;;-145.67;100.00;66521.78;5079934;28;20080;-90
2023/10/18 02:49:53;;;;;;;35.30;22.45;;;;;;;-145.67;100.00;66521.78;5067926;28;20055;-90
2023/10/18 02:52:19;;;;;;;32.85;23.35;;;;;;;-145.67;100.00;66521.78;5083098;28;20039;-90
2023/10/18 02:54:48;;;;;;;32.55;21.85;;;;;;;-145.67;100.00;66521.78;5082830;28;20012;-89
2023/10/18 02:57:17;;;;;;;38.25;23.73;;;;;;;-145.67;100.00;66521.78;5084221;28;20058;-90
2023/10/18 02:59:43;;;;;;;32.88;22.63;;;;;;;-145.67;100.00;66521.78;5082915;28;20050;-90
2023/10/18 03:02:15;;;;;;;31.73;21.80;;;;;;;-145.67;100.00;66521.78;5082555;28;20039;-90
2023/10/18 03:04:43;;;;;;;35.75;22.98;;;;;;;-145.67;100.00;66521.78;5084306;28;20024;-90
2023/10/18 03:07:13;;;;;;;35.53;22.55;;;;;;;-145.67;100.00;66521.78;5082572;28;20036;-92
2023/10/18 03:09:39;;;;;;;32.97;22.15;;;;;;;-145.67;100.00;66521.78;5066648;28;20088;-90
2023/10/18 03:12:14;;;;;;;32.92;21.58;;;;;;;-145.67;100.00;66521.78;5060921;28;20057;-90
2023/10/18 03:14:41;;;;;;;32.75;21.65;;;;;;;-145.67;100.00;66521.78;5089242;28;20024;-91
2023/10/18 03:17:15;;;;;;;35.60;22.73;;;;;;;-145.67;100.00;66521.78;5070750;28;20422;-90
2023/10/18 03:19:44;;;;;;;32.50;22.13;;;;;;;-145.67;100.00;66521.78;5085094;28;20055;-91
2023/10/18 03:22:11;;;;;;;32.45;22.13;;;;;;;-145.67;100.00;66521.78;5121626;28;20023;-89
2023/10/18 03:24:37;;;;;;;34.80;23.25;;;;;;;-145.67;100.00;66521.78;5087050;28;20188;-91
2023/10/18 03:27:08;;;;;;;38.15;22.30;;;;;;;-145.67;100.00;66521.78;5087287;28;20088;-91
2023/10/18 03:29:37;;;;;;;33.50;21.88;;;;;;;-145.67;100.00;66521.78;5102583;28;20041;-91
2023/10/18 03:32:08;;;;;;;34.22;23.02;;;;;;;-145.67;100.00;66521.78;5083211;28;20032;-91
2023/10/18 03:34:41;;;;;;;33.78;22.73;;;;;;;-145.67;100.00;66521.78;5098874;28;20032;-90
2023/10/18 03:37:08;;;;;;;32.13;21.70;;;;;;;-145.67;100.00;66521.78;5083038;28;20024;-91
2023/10/18 03:39:33;;;;;;;35.42;22.58;;;;;;;-145.67;100.00;66521.78;5098005;28;20035;-91
2023/10/18 03:42:00;;;;;;;33.47;22.55;;;;;;;-145.67;100.00;66521.78;5098880;28;20020;-90
2023/10/18 03:44:27;;;;;;;35.75;23.35;;;;;;;-145.67;100.00;66521.78;5117023;28;20020;-91
2023/10/18 03:47:03;;;;;;;33.15;22.45;;;;;;;-145.67;100.00;66521.78;5081836;28;20024;-91
2023/10/18 03:52:16;;;;;;;33.97;22.52;;;;;;;-145.67;100.00;66521.78;5098754;28;20102;-90
2023/10/18 03:54:57;;;;;;;33.00;23.92;;;;;;;-145.67;100.00;66521.78;5100846;28;20032;-89
2023/10/18 03:57:38;;;;;;;35.60;23.67;;;;;;;-145.67;100.00;66521.78;5083260;28;20474;-90
2023/10/18 04:03:08;;;;;;;38.53;24.42;;;;;;;-145.67;100.00;66521.78;5100504;28;20037;-90
2023/10/18 04:05:46;;;;;;;33.95;23.23;;;;;;;-145.67;100.00;66521.78;5082425;28;20019;-90
2023/10/18 04:08:17;;;;;;;37.78;23.95;;;;;;;-145.67;100.00;66521.78;5098191;28;20516;-90
2023/10/18 04:10:44;;;;;;;35.47;24.67;;;;;;;-145.67;100.00;66521.78;5081847;28;20046;-90
2023/10/18 04:13:13;;;;;;;38.15;23.38;;;;;;;-145.67;100.00;66521.78;5098137;28;20477;-91
2023/10/18 04:15:41;;;;;;;37.33;24.20;;;;;;;-145.67;100.00;66521.78;5081236;28;20039;-90
2023/10/18 04:18:13;;;;;;;34.13;23.50;;;;;;;-145.67;100.00;66521.78;5098011;28;20023;-90
2023/10/18 04:20:43;;;;;;;34.45;22.85;;;;;;;-145.67;100.00;66521.78;5081649;28;20027;-91
2023/10/18 04:23:15;;;;;;;36.42;24.17;;;;;;;-145.67;100.00;66521.78;5081271;28;20015;-90
2023/10/18 04:26:10;;;;;;;37.72;24.40;;;;;;;-145.67;100.00;66521.78;5082777;28;20072;-90
2023/10/18 04:28:38;;;;;;;35.20;22.67;;;;;;;-145.67;100.00;66521.78;5101017;28;20390;-90
2023/10/18 04:31:11;;;;;;;37.03;23.25;;;;;;;-145.67;100.00;66521.78;5098243;28;20089;-91
2023/10/18 04:33:43;;;;;;;37.05;23.73;;;;;;;-145.67;100.00;66521.78;5094921;28;20020;-92
2023/10/18 04:36:13;;;;;;;33.28;22.83;;;;;;;-145.67;100.00;66521.78;5061131;28;20040;-91
2023/10/18 04:38:48;;;;;;;34.13;23.40;;;;;;;-145.67;100.00;66521.78;5096548;28;20103;-90
2023/10/18 04:41:24;;;;;;;34.22;23.75;;;;;;;-145.67;100.00;66521.78;5098596;28;20051;-91
2023/10/18 04:44:17;;;;;;;38.40;24.83;;;;;;;-145.67;100.00;66521.78;5086420;28;20040;-92
2023/10/18 04:46:47;;;;;;;35.45;23.85;;;;;;;-145.67;100.00;66521.78;5086556;27;20036;-91
2023/10/18 04:54:15;;;;;;;37.47;23.85;;;;;;;-145.67;100.00;66521.78;5077025;28;20024;-90
2023/10/18 04:56:44;;;;;;;35.47;23.10;;;;;;;-145.67;100.00;66521.78;5062074;28;20047;-90
2023/10/18 04:59:25;;;;;;;35.80;23.33;;;;;;;-145.67;100.00;66521.78;5077195;28;20036;-91
2023/10/18 05:01:56;;;;;;;34.60;23.63;;;;;;;-145.67;100.00;66521.78;5077473;28;20035;-90
2023/10/18 05:04:32;;;;;;;33.33;22.55;;;;;;;-145.67;100.00;66521.78;5060719;28;20028;-91
2023/10/18 05:07:00;;;;;;;34.70;22.88;;;;;;;-145.67;100.00;66521.78;5076946;28;20035;-90
2023/10/18 05:09:34;;;;;;;35.72;22.27;;;;;;;-145.67;100.00;66521.78;5060320;28;20024;-90
2023/10/18 05:12:46;;;;;;;37.47;22.60;;;;;;;-145.67;100.00;66521.78;5060014;28;20031;-90
2023/10/18 05:17:26;;;;;;;33.92;21.83;;;;;;;-145.67;100.00;66521.78;5095094;28;20059;-91
2023/10/18 05:19:55;;;;;;;35.42;22.60;;;;;;;-145.67;100.00;66521.78;5077734;28;20080;-91
2023/10/18 05:22:35;;;;;;;36.17;21.92;;;;;;;-145.67;100.00;66521.78;5061595;28;20032;-90
2023/10/18 05:28:15;;;;;;;35.75;22.35;;;;;;;-145.67;100.00;66521.78;5079472;28;20024;-92
2023/10/18 05:42:53;;;;;;;33.53;22.48;;;;;;;-145.67;100.00;66521.78;5084345;28;20035;-89
2023/10/18 05:45:19;;;;;;;35.97;22.15;;;;;;;-145.67;100.00;66521.78;5070568;28;20028;-88
2023/10/18 05:47:54;;;;;;;37.50;23.98;;;;;;;-145.67;100.00;66521.78;5087474;28;20028;-89
2023/10/18 05:50:24;;;;;;;38.53;23.77;;;;;;;-145.67;100.00;66521.78;5079553;28;20077;-89
2023/10/18 05:52:57;;;;;;;36.08;22.38;;;;;;;-145.67;100.00;66521.78;5079890;28;20020;-88
2023/10/18 05:55:23;;;;;;;34.05;22.33;;;;;;;-145.67;100.00;66521.78;5063275;28;20043;-88
2023/10/18 05:57:50;;;;;;;40.03;23.70;;;;;;;-145.67;100.00;66521.78;5062629;28;20111;-89
2023/10/18 06:00:18;;;;;;;44.05;23.00;;;;;;;-145.67;100.00;66521.78;5076753;28;20112;-88
2023/10/18 06:02:45;;;;;;;35.97;23.52;;;;;;;-145.67;100.00;66521.78;5099303;28;20100;-87
2023/10/18 06:05:12;;;;;;;34.03;22.60;;;;;;;-145.67;100.00;66521.78;5081746;28;20050;-87
2023/10/18 06:07:37;;;;;;;33.08;22.95;;;;;;;-145.67;100.00;66521.78;5080592;28;20115;-88
2023/10/18 06:10:38;;;;;;;37.88;23.63;;;;;;;-145.67;100.00;66521.78;5066576;28;20058;-88
2023/10/18 06:13:10;;;;;;;34.60;22.90;;;;;;;-145.67;100.00;66521.78;5081714;28;20086;-86
2023/10/18 06:15:44;;;;;;;35.53;22.33;;;;;;;-145.67;100.00;66521.78;5080984;28;20078;-88
2023/10/18 06:18:16;;;;;;;33.78;21.95;;;;;;;-145.67;100.00;66521.78;5082974;28;20115;-88
2023/10/18 06:20:44;;;;;;;35.05;23.90;;;;;;;-145.67;100.00;66521.78;5062139;28;20300;-88
2023/10/18 06:25:57;;;;;;;36.65;22.50;;;;;;;-145.67;100.00;66521.78;5075368;28;20050;-89
2023/10/18 06:28:24;;;;;;;35.15;22.75;;;;;;;-145.67;100.00;66521.78;5050524;28;20047;-87
2023/10/18 06:30:52;;;;;;;33.17;22.20;;;;;;;-145.67;100.00;66521.78;5065540;28;20028;-88
2023/10/18 06:33:21;;;;;;;34.47;22.42;;;;;;;-145.67;100.00;66521.78;5085129;28;20107;-89
2023/10/18 06:35:53;;;;;;;35.72;22.35;;;;;;;-145.67;100.00;66521.78;5070655;28;20028;-88
2023/10/18 06:38:23;;;;;;;36.35;22.98;;;;;;;-145.67;100.00;66521.78;5090457;28;20024;-88
2023/10/18 06:41:03;;;;;;;31.70;20.73;;;;;;;-145.67;100.00;66521.78;5072817;28;20039;-88
2023/10/18 06:43:30;;;;;;;36.97;23.05;;;;;;;-145.67;100.00;66521.78;5091438;28;20027;-88
2023/10/18 06:45:57;;;;;;;37.00;22.20;;;;;;;-145.67;100.00;66521.78;5076111;28;20032;-89
2023/10/18 06:48:26;;;;;;;34.83;21.70;;;;;;;-145.67;100.00;66521.78;5093227;28;20384;-89
2023/10/18 06:50:53;;;;;;;32.13;21.65;;;;;;;-145.67;100.00;66521.78;5091950;28;20115;-88
2023/10/18 06:53:20;;;;;;;37.38;22.30;;;;;;;-145.67;100.00;66521.78;5092531;28;20020;-88
2023/10/18 06:55:56;;;;;;;33.47;22.33;;;;;;;-145.67;100.00;66521.78;5077743;28;20040;-89
2023/10/18 07:00:53;;;;;;;34.80;21.67;;;;;;;-145.67;100.00;66521.78;5107371;28;20054;-89
2023/10/18 07:03:27;;;;;;;33.33;20.70;;;;;;;-145.67;100.00;66521.78;5087367;28;20024;-88
2023/10/18 07:05:54;;;;;;;30.23;21.52;;;;;;;-145.67;100.00;66521.78;5085457;28;20024;-89
2023/10/18 07:08:20;;;;;;;31.75;21.00;;;;;;;-145.67;100.00;66521.78;5083969;28;20043;-89
2023/10/18 07:10:56;;;;;;;33.10;20.90;;;;;;;-145.67;100.00;66521.78;5065633;28;20042;-89
2023/10/18 07:13:34;;;;;;;30.40;20.20;;;;;;;-145.67;100.00;66521.78;5080247;28;20023;-89
2023/10/18 07:16:01;;;;;;;30.17;19.35;;;;;;;-145.67;100.00;66521.78;5086683;28;20087;-90
2023/10/18 07:18:27;;;;;;;30.65;19.55;;;;;;;-145.67;100.00;66521.78;5084206;28;20382;-89
2023/10/18 07:20:59;;;;;;;32.00;19.98;;;;;;;-145.67;100.00;66521.78;5100962;28;20031;-88
2023/10/18 07:23:26;;;;;;;28.02;20.35;;;;;;;-145.67;100.00;66521.78;5084507;28;20031;-90
2023/10/18 07:25:52;;;;;;;27.63;18.95;;;;;;;-145.67;100.00;66521.78;5100019;28;20027;-90
2023/10/18 07:28:21;;;;;;;29.63;19.17;;;;;;;-145.67;100.00;66521.78;5100405;28;20035;-89
2023/10/18 07:30:55;;;;;;;28.15;19.00;;;;;;;-145.67;100.00;66521.78;5067606;28;20032;-90
2023/10/18 07:33:23;;;;;;;26.20;18.42;;;;;;;-145.67;100.00;66521.78;5065073;28;20020;-92
2023/10/18 07:35:49;;;;;;;28.63;18.00;;;;;;;-145.67;100.00;66521.78;5080781;28;20031;-90
2023/10/18 07:38:25;;;;;;;27.45;18.52;;;;;;;-145.67;100.00;66521.78;5061603;28;20063;-91
2023/10/18 07:40:56;;;;;;;25.83;18.00;;;;;;;-145.67;100.00;66521.78;5065790;28;20088;-93
2023/10/18 07:43:25;;;;;;;26.13;18.17;;;;;;;-145.67;100.00;66521.78;5079540;28;20103;-90
2023/10/18 07:46:18;;;;;;;25.40;17.42;;;;;;;-145.67;100.00;66521.78;5080463;28;20470;-92
2023/10/18 07:48:47;;;;;;;26.13;17.83;;;;;;;-145.67;100.00;66521.78;5084811;28;20412;-90
2023/10/18 07:51:23;;;;;;;26.55;18.00;;;;;;;-145.67;100.00;66521.78;5099274;28;20028;-91
2023/10/18 07:53:54;;;;;;;25.10;17.08;;;;;;;-145.67;100.00;66521.78;5101289;28;20068;-90
2023/10/18 07:56:27;;;;;;;24.08;17.50;;;;;;;-145.67;100.00;66521.78;5082142;28;20034;-90
2023/10/18 07:59:32;;;;;;;27.90;17.77;;;;;;;-145.67;100.00;66521.78;5099673;28;20117;-91
2023/10/18 08:04:39;;;;;;;25.45;17.35;;;;;;;-145.67;100.00;66521.78;5084243;28;20513;-90
2023/10/18 08:07:15;;;;;;;22.73;16.20;;;;;;;-145.67;100.00;66521.78;5063086;28;20032;-90
2023/10/18 08:09:44;;;;;;;22.27;16.13;;;;;;;-145.67;100.00;66521.78;5081040;28;20459;-90
2023/10/18 08:12:29;;;;;;;21.75;16.20;;;;;;;-145.67;100.00;66521.78;5062906;28;20047;-90
2023/10/18 08:14:56;;;;;;;23.75;17.15;;;;;;;-145.67;100.00;66521.78;5097526;28;20032;-89
2023/10/18 08:17:43;;;;;;;21.65;15.52;;;;;;;-145.67;100.00;66521.78;5063792;28;20032;-90
2023/10/18 08:22:53;;;;;;;21.85;15.98;;;;;;;-145.67;100.00;66521.78;5081152;28;20024;-90
2023/10/18 08:25:22;;;;;;;23.08;15.75;;;;;;;-145.67;100.00;66521.78;5062598;28;20080;-90
2023/10/18 08:27:53;;;;;;;21.63;15.52;;;;;;;-145.67;100.00;66521.78;5096232;28;20130;-90
2023/10/18 08:30:24;;;;;;;22.08;14.40;;;;;;;-145.67;100.00;66521.78;5061553;28;20039;-90
2023/10/18 08:32:53;;;;;;;23.27;15.50;;;;;;;-145.67;100.00;66521.78;5061630;28;20028;-89
2023/10/18 08:35:20;;;;;;;22.15;14.63;;;;;;;-145.67;100.00;66521.78;5061280;28;20031;-91
2023/10/18 08:37:46;;;;;;;21.58;14.88;;;;;;;-145.67;100.00;66521.78;5077574;28;20020;-91
2023/10/18 08:40:28;;;;;;;20.85;14.43;;;;;;;-145.67;100.00;66521.78;5062036;28;20638;-90
2023/10/18 08:43:08;;;;;;;19.85;14.07;;;;;;;-145.67;100.00;66521.78;5048233;28;20032;-91
2023/10/18 08:45:45;;;;;;;23.38;14.50;;;;;;;-145.67;100.00;66521.78;5095540;28;20026;-90
2023/10/18 08:48:20;;;;;;;19.85;14.43;;;;;;;-145.67;100.00;66521.78;5103650;28;20024;-89
2023/10/18 08:50:48;;;;;;;21.25;14.27;;;;;;;-145.67;100.00;66521.78;5117797;28;20040;-90
2023/10/18 08:53:22;;;;;;;20.15;14.02;;;;;;;-145.67;100.00;66521.78;5099774;28;20040;-91
2023/10/18 08:55:51;;;;;;;19.38;14.32;;;;;;;-145.67;100.00;66521.78;5083794;28;20035;-91
2023/10/18 08:58:19;;;;;;;19.58;13.75;;;;;;;-145.67;100.00;66521.78;5075841;28;20107;-91
2023/10/18 09:03:33;;;;;;;20.27;14.63;;;;;;;-145.67;100.00;66521.78;5097824;28;20035;-90
2023/10/18 09:06:05;;;;;;;18.83;14.32;;;;;;;-145.67;100.00;66521.78;5082354;28;20029;-91
2023/10/18 09:08:38;;;;;;;;;;;;;;;-145.67;100.00;66521.78;5115614;28;20084;-90
2023/10/18 09:11:21;;;;;;;21.15;14.60;;;;;;;-145.67;100.00;66521.78;5098035;28;19912;-90
2023/10/18 09:14:07;;;;;;;25.52;15.20;;;;;;;-145.67;100.00;66521.78;5082152;28;20031;-90
2023/10/18 09:16:45;;;;;;;19.50;13.77;;;;;;;-145.67;100.00;66521.78;5082089;28;20031;-90
2023/10/18 09:19:10;;;;;;;20.20;14.45;;;;;;;-145.67;100.00;66521.78;5080711;28;20140;-90
2023/10/18 09:21:42;;;;;;;20.00;14.65;;;;;;;-145.67;100.00;66521.78;5096962;28;20446;-90
2023/10/18 09:24:09;;;;;;;19.38;14.82;;;;;;;-145.67;100.00;66521.78;5115752;28;20080;-90
2023/10/18 09:26:41;;;;;;;21.50;14.15;;;;;;;-145.67;100.00;66521.78;5082857;28;20481;-91
2023/10/18 09:29:08;;;;;;;19.95;15.23;;;;;;;-145.67;100.00;66521.78;5099461;28;20028;-90
2023/10/18 09:31:36;;;;;;;18.55;14.27;;;;;;;-145.67;100.00;66521.78;5099055;28;20073;-91
2023/10/18 09:34:10;;;;;;;19.50;13.75;;;;;;;-145.67;100.00;66521.78;5096987;28;20027;-91
2023/10/18 09:36:39;;;;;;;17.73;13.27;;;;;;;-145.67;100.00;66521.78;5097306;28;20051;-90
2023/10/18 09:39:13;;;;;;;17.83;13.27;;;;;;;-145.67;100.00;66521.78;5097377;28;20023;-90
2023/10/18 09:41:39;;;;;;;21.05;13.30;;;;;;;-145.67;100.00;66521.78;5080449;28;20056;-91
2023/10/18 09:44:06;;;;;;;18.77;13.55;;;;;;;-145.67;100.00;66521.78;5115341;28;20024;-90
2023/10/18 09:46:35;;;;;;;17.88;13.35;;;;;;;-145.67;100.00;66521.78;5080854;28;20023;-91
2023/10/18 09:49:20;;;;;;;18.52;13.50;;;;;;;-145.67;100.00;66521.78;5097328;28;20102;-90
2023/10/18 09:51:53;;;;;;;18.77;13.18;;;;;;;-145.67;100.00;66521.78;5082477;28;20492;-92
2023/10/18 09:54:21;;;;;;;;;;;;;;;-145.67;100.00;66521.78;5088132;28;20020;-91
2023/10/18 09:56:48;;;;;;;17.70;12.57;;;;;;;-145.67;100.00;66521.78;5085299;28;19941;-91
2023/10/18 09:59:25;;;;;;;16.23;12.13;;;;;;;-145.67;100.00;66521.78;5096661;28;20049;-89
2023/10/18 10:01:56;;;;;;;17.55;12.23;;;;;;;-145.67;100.00;66521.78;5081306;28;20042;-90
2023/10/18 10:04:25;;;;;;;16.05;11.70;;;;;;;-145.67;100.00;66521.78;5080518;28;20038;-89
2023/10/18 10:06:55;;;;;;;14.43;10.85;;;;;;;-145.67;100.00;66521.78;5095721;28;20026;-89
2023/10/18 10:09:29;;;;;;;15.57;11.65;;;;;;;-145.67;100.00;66521.78;5096571;28;20024;-91
2023/10/18 10:11:54;;;;;;;14.43;11.05;;;;;;;-145.67;100.00;66521.78;5095797;28;20104;-90
2023/10/18 10:14:23;;;;;;;16.00;10.52;;;;;;;-145.67;100.00;66521.78;5095764;28;20493;-90
2023/10/18 10:16:57;;;;;;;12.73;9.88;;;;;;;-145.67;100.00;66521.78;5080486;28;20518;-91
2023/10/18 10:19:33;;;;;;;16.13;10.45;;;;;;;-145.67;100.00;66521.78;5061933;28;20028;-91
2023/10/18 10:22:06;;;;;;;15.20;10.35;;;;;;;-145.67;100.00;66521.78;5080592;28;20092;-91
2023/10/18 10:24:51;;;;;;;14.70;10.05;;;;;;;-145.67;100.00;66521.78;5096016;28;20027;-90
2023/10/18 10:30:03;;;;;;;15.55;10.00;;;;;;;-145.67;100.00;66521.78;5117341;28;20457;-91
2023/10/18 10:32:30;;;;;;;12.98;9.70;;;;;;;-145.67;100.00;66521.78;5104786;28;20122;-90
2023/10/18 10:35:17;;;;;;;12.27;9.20;;;;;;;-145.67;100.00;66521.78;5079268;28;20085;-91
2023/10/18 10:37:49;;;;;;;12.77;9.80;;;;;;;-145.67;100.00;66521.78;5080385;28;20518;-92
2023/10/18 10:40:38;;;;;;;12.57;9.85;;;;;;;-145.67;100.00;66521.78;5115214;28;20488;-90
2023/10/18 10:43:12;;;;;;;16.20;9.15;;;;;;;-145.67;100.00;66521.78;5079075;28;20043;-91
2023/10/18 10:45:43;;;;;;;13.60;9.85;;;;;;;-145.67;100.00;66521.78;5083729;28;20088;-91
2023/10/18 10:48:18;;;;;;;13.53;10.30;;;;;;;-145.67;100.00;66521.78;5077783;28;20028;-92
2023/10/18 10:50:50;;;;;;;15.80;10.02;;;;;;;-145.67;100.00;66521.78;5076628;28;20473;-91
2023/10/18 10:53:44;;;;;;;13.48;10.38;;;;;;;-145.67;100.00;66521.78;5060487;28;20039;-90
2023/10/18 10:56:36;;;;;;;12.50;9.65;;;;;;;-145.67;100.00;66521.78;5075592;28;20089;-91
2023/10/18 11:04:46;;;;;;;14.82;11.00;;;;;;;-145.67;100.00;66521.78;5093151;28;20019;-91
2023/10/18 11:07:13;;;;;;;12.48;9.90;;;;;;;-145.67;100.00;66521.78;5093389;28;20028;-91
2023/10/18 11:09:42;;;;;;;14.65;10.38;;;;;;;-145.67;100.00;66521.78;5058256;28;20032;-90
2023/10/18 11:12:12;;;;;;;18.73;10.25;;;;;;;-145.67;100.00;66521.78;5075470;28;20119;-91
2023/10/18 11:14:38;;;;;;;15.10;10.90;;;;;;;-145.67;100.00;66521.78;5058619;28;20056;-90
2023/10/18 11:19:43;;;;;;;11.40;9.30;;;;;;;-145.67;100.00;66521.78;5093177;28;20467;-92
2023/10/18 11:22:11;;;;;;;14.60;10.65;;;;;;;-145.67;100.00;66521.78;5086340;28;20068;-92
2023/10/18 11:24:39;;;;;;;13.80;10.35;;;;;;;-145.67;100.00;66521.78;5095489;28;20527;-92
2023/10/18 11:27:08;;;;;;;14.75;10.95;;;;;;;-145.67;100.00;66521.78;5103030;28;20020;-91
2023/10/18 11:29:38;;;;;;;15.85;10.80;;;;;;;-145.67;100.00;66521.78;5075033;28;20028;-90
2023/10/18 11:32:06;;;;;;;13.18;9.95;;;;;;;-145.67;100.00;66521.78;5075410;28;20505;-91
2023/10/18 11:34:33;;;;;;;12.95;10.18;;;;;;;-145.67;100.00;66521.78;5059073;28;20083;-90
2023/10/18 11:37:02;;;;;;;14.07;9.77;;;;;;;-145.67;100.00;66521.78;5057698;28;20027;-91
2023/10/18 11:39:34;;;;;;;13.35;9.45;;;;;;;-145.67;100.00;66521.78;5060232;28;20027;-91
2023/10/18 11:42:00;;;;;;;;;;;;;;;-145.67;100.00;66521.78;5079090;28;20024;-91
2023/10/18 11:44:33;;;;;;;12.73;9.30;;;;;;;-145.67;100.00;66521.78;5061482;28;20017;-89
2023/10/18 11:47:26;;;;;;;12.70;9.13;;;;;;;-145.67;100.00;66521.78;5077755;28;20024;-89
2023/10/18 11:49:53;;;;;;;13.60;10.05;;;;;;;-145.67;100.00;66521.78;5096015;28;20032;-90
2023/10/18 11:52:25;;;;;;;14.20;9.40;;;;;;;-145.67;100.00;66521.78;5078414;28;20478;-89
2023/10/18 11:54:54;;;;;;;14.68;9.82;;;;;;;-145.67;100.00;66521.78;5061502;28;20024;-91
2023/10/18 11:57:25;;;;;;;13.35;9.52;;;;;;;-145.67;100.00;66521.78;5061885;28;20028;-90
2023/10/18 11:59:52;;;;;;;14.77;10.05;;;;;;;-145.67;100.00;66521.78;5061297;28;20020;-91
2023/10/18 12:02:18;;;;;;;14.07;9.82;;;;;;;-145.67;100.00;66521.78;5061187;28;20031;-90
2023/10/18 12:04:45;;;;;;;14.30;9.55;;;;;;;-145.67;100.00;66521.78;5061807;28;20448;-91
2023/10/18 12:07:13;;;;;;;11.70;9.25;;;;;;;-145.67;100.00;66521.78;5081483;28;20334;-90